Etusivu
METAR-TAF:

METAR-TAF

Lentoasemat :

Igloolikin lentoasema

Igloolik, Nunavut, Kanada

Leveyspiiri: 69-22N, Pituuspiiri: 081-49W, korkeus merenpinnasta: 51 m

Tämänhetkinen sää

Tämä raportti tehtiin 12 tuntia ja 9 minuuttia sitten, kello 22.00 UTC
Tuuli 9 kn pohjoisen/luoteesta
Lämpötila -32°C
Kosteus 74%
Ilmanpaine 1021 hPa
Näkyvyys: 24.1 km
Muutamia pilviä 3000 ft:n korkeudessa

METAR: CYGT 242200Z 34009KT 15SM FEW030 M32/M35 A3015 RMK SC1 LAST STFD OBS/NEXT 2511UTC SLP222

Aika: 05:09 (10:09 UTC)

Sääennuste

Tämä raportti tehtiin 15 tuntia ja 31 minuuttia sitten, kello 18.38 UTC
Ennuste voimassa 24. päivästä klo 19 UTC - 24. päivään klo 22 UTC
Tuuli 8 kn pohjoisen/luoteesta
Näkyvyys: 10 km
Muutamia pilviä 3000 ft:n korkeudessa

TAF: CYGT 241838Z 2419/2422 33008KT P6SM FEW030 RMK NXT FCST WILL BE ISSUED AT 251245Z

Säähavainnot ja -ennusteet yli 4000 lentoasemalta (METAR- ja TAF-raportit).

Käytössä olevat sääasemat on merkitty karttaan keltaisilla ja punaisilla pisteillä.

Aseta hiiri pisteen päälle nähdäksesi sääaseman nimen.

Klikkaa sitten nähdäksesi säähavainnot ja -ennusteet.

Kartan vaihtaminen: klikkaa mustalla rastilla varustettuja vihreitä pisteitä, niin voit zoomata sisään; viivalla varustettua vihreää pistettä, niin voit zoomata ulos tai vihreitä nuolia, niin pääset viereisille kartoille.


METAR-TAF: